Time;durP1;ratioP1;P1;durP2;ratioP2;P2;SDS_P1;SDS_P2;PMS_P1;PMS_P2;Temp;Humidity;BMP_temperature;BMP_pressure;BME280_temperature;BME280_humidity;BME280_pressure;Samples;Min_cycle;Max_cycle;Signal;HPM_P1;HPM_P2
2023/12/09 00:00:55;;;;;;;26.73;17.53;;;2.20;99.90;;;;;;5047521;28;20258;-67
2023/12/09 00:03:22;;;;;;;24.77;16.67;;;2.30;99.90;;;;;;5047467;28;20631;-67
2023/12/09 00:05:49;;;;;;;23.80;16.03;;;2.30;99.90;;;;;;5046750;28;20726;-67
2023/12/09 00:08:16;;;;;;;23.00;16.43;;;2.30;99.90;;;;;;5047255;28;20192;-67
2023/12/09 00:10:42;;;;;;;26.33;16.77;;;2.30;99.90;;;;;;5038785;28;20291;-66
2023/12/09 00:13:10;;;;;;;26.30;16.53;;;2.30;99.90;;;;;;5047225;28;20208;-67
2023/12/09 00:15:38;;;;;;;26.47;17.50;;;2.30;99.90;;;;;;5047642;28;20289;-67
2023/12/09 00:18:05;;;;;;;28.63;18.23;;;2.30;99.90;;;;;;5046804;28;20331;-67
2023/12/09 00:20:32;;;;;;;26.27;16.70;;;2.30;99.90;;;;;;5046767;28;20295;-67
2023/12/09 00:22:59;;;;;;;25.30;16.90;;;2.30;99.90;;;;;;5047094;28;20303;-66
2023/12/09 00:25:26;;;;;;;27.97;17.10;;;2.30;99.90;;;;;;5046438;28;20227;-67
2023/12/09 00:27:53;;;;;;;28.77;18.07;;;2.30;99.90;;;;;;5046395;28;20210;-67
2023/12/09 00:30:21;;;;;;;26.10;16.63;;;2.30;99.90;;;;;;5047081;28;20231;-67
2023/12/09 00:32:49;;;;;;;25.13;17.20;;;2.30;99.90;;;;;;5046868;28;20867;-67
2023/12/09 00:35:16;;;;;;;27.07;16.73;;;2.30;99.90;;;;;;5046908;28;20212;-67
2023/12/09 00:37:43;;;;;;;25.47;17.30;;;2.30;99.90;;;;;;5046941;28;20204;-67
2023/12/09 00:40:11;;;;;;;26.27;16.70;;;2.40;99.90;;;;;;5047116;28;20220;-67
2023/12/09 00:42:38;;;;;;;25.50;17.07;;;2.30;99.90;;;;;;5046332;28;20208;-67
2023/12/09 00:45:06;;;;;;;25.90;16.90;;;2.40;99.90;;;;;;5046753;28;20263;-67
2023/12/09 00:47:33;;;;;;;26.30;16.50;;;2.40;99.90;;;;;;5046454;28;20299;-67
2023/12/09 00:50:02;;;;;;;25.27;16.87;;;2.40;99.90;;;;;;5046134;28;20307;-67
2023/12/09 00:52:29;;;;;;;24.80;16.73;;;2.40;99.90;;;;;;5046896;28;20299;-67
2023/12/09 00:54:56;;;;;;;24.83;17.03;;;2.40;99.90;;;;;;5046235;28;20683;-67
2023/12/09 00:57:24;;;;;;;25.37;17.13;;;2.40;99.90;;;;;;5046062;28;20211;-67
2023/12/09 00:59:51;;;;;;;25.30;16.97;;;2.40;99.90;;;;;;5046643;28;20196;-67
2023/12/09 01:02:18;;;;;;;26.53;16.90;;;2.40;99.90;;;;;;5046606;28;20394;-66
2023/12/09 01:04:45;;;;;;;26.90;17.50;;;2.40;99.90;;;;;;5045867;28;20323;-67
2023/12/09 01:07:13;;;;;;;24.43;16.10;;;2.40;99.90;;;;;;5045642;28;20267;-67
2023/12/09 01:09:40;;;;;;;25.03;16.80;;;2.40;99.90;;;;;;5046566;28;20211;-67
2023/12/09 01:12:07;;;;;;;24.37;16.93;;;2.50;99.90;;;;;;5026130;28;20296;-67
2023/12/09 01:14:34;;;;;;;25.83;17.27;;;2.40;99.90;;;;;;5043878;28;20290;-67
2023/12/09 01:17:01;;;;;;;23.43;16.23;;;2.50;99.90;;;;;;5046101;28;20286;-67
2023/12/09 01:19:28;;;;;;;24.57;16.17;;;2.40;99.90;;;;;;5046089;28;20206;-67
2023/12/09 01:21:55;;;;;;;26.67;17.53;;;2.40;99.90;;;;;;5046178;28;20220;-67
2023/12/09 01:24:23;;;;;;;31.53;18.13;;;2.50;99.90;;;;;;5046435;28;20223;-67
2023/12/09 01:26:50;;;;;;;28.70;18.13;;;2.40;99.90;;;;;;5045827;28;20208;-67
2023/12/09 01:29:17;;;;;;;25.73;16.83;;;2.40;99.90;;;;;;5046093;28;20292;-67
2023/12/09 01:31:44;;;;;;;24.10;16.53;;;2.40;99.90;;;;;;5046099;28;20294;-67
2023/12/09 01:34:10;;;;;;;25.60;16.67;;;2.40;99.90;;;;;;5045870;28;20222;-67
2023/12/09 01:36:37;;;;;;;26.43;17.50;;;2.50;99.90;;;;;;5045777;28;20299;-67
2023/12/09 01:39:04;;;;;;;25.97;17.23;;;2.50;99.90;;;;;;5049922;28;20235;-67
2023/12/09 01:41:32;;;;;;;25.03;17.10;;;2.50;99.90;;;;;;5050293;28;20299;-67
2023/12/09 01:43:59;;;;;;;27.47;16.83;;;2.60;99.90;;;;;;5049512;28;20788;-67
2023/12/09 01:46:26;;;;;;;25.00;16.97;;;2.50;99.90;;;;;;5050093;28;20208;-67
2023/12/09 01:48:53;;;;;;;26.30;17.40;;;2.50;99.90;;;;;;5049478;28;20307;-67
2023/12/09 01:51:20;;;;;;;25.60;17.10;;;2.50;99.90;;;;;;5049880;28;20230;-67
2023/12/09 01:53:48;;;;;;;26.03;17.70;;;2.50;99.90;;;;;;5049702;28;20305;-67
2023/12/09 01:56:17;;;;;;;25.03;17.17;;;2.50;99.90;;;;;;5049570;28;20307;-67
2023/12/09 01:58:44;;;;;;;25.90;16.80;;;2.50;99.90;;;;;;5049525;28;20212;-67
2023/12/09 02:01:14;;;;;;;25.57;16.77;;;2.50;99.90;;;;;;5049713;28;20211;-67
2023/12/09 02:03:41;;;;;;;27.63;18.13;;;2.50;99.90;;;;;;5029474;28;20624;-67
2023/12/09 02:06:09;;;;;;;26.20;17.17;;;2.40;99.90;;;;;;5029163;28;20362;-67
2023/12/09 02:08:36;;;;;;;26.27;17.70;;;2.50;99.90;;;;;;5029452;28;20235;-67
2023/12/09 02:11:15;;;;;;;24.90;17.33;;;2.40;99.90;;;;;;5037439;28;20618;-67
2023/12/09 02:13:52;;;;;;;28.43;17.53;;;2.40;99.90;;;;;;5029552;28;20689;-67
2023/12/09 02:16:34;;;;;;;27.70;18.00;;;2.40;99.90;;;;;;5031184;28;20197;-67
2023/12/09 02:19:02;;;;;;;25.83;17.53;;;2.50;99.90;;;;;;5049238;28;20193;-67
2023/12/09 02:21:28;;;;;;;28.20;18.03;;;2.50;99.90;;;;;;5049125;28;20298;-67
2023/12/09 02:23:57;;;;;;;25.90;17.23;;;2.50;99.90;;;;;;5049167;28;20296;-67
2023/12/09 02:26:26;;;;;;;25.73;16.70;;;2.50;99.90;;;;;;5049208;28;20704;-67
2023/12/09 02:28:59;;;;;;;24.30;16.97;;;2.50;99.90;;;;;;5048922;28;20219;-67
2023/12/09 02:31:31;;;;;;;27.87;17.87;;;2.50;99.90;;;;;;5049153;28;20798;-67
2023/12/09 02:34:01;;;;;;;26.70;16.73;;;2.50;99.90;;;;;;5048982;28;20534;-67
2023/12/09 02:36:29;;;;;;;30.10;17.60;;;2.50;99.90;;;;;;5049083;28;20377;-67
2023/12/09 02:38:58;;;;;;;27.40;17.27;;;2.50;99.90;;;;;;5049227;28;20291;-67
2023/12/09 02:41:28;;;;;;;28.23;17.63;;;2.50;99.90;;;;;;5049410;28;20636;-67
2023/12/09 02:43:55;;;;;;;24.33;16.83;;;2.50;99.90;;;;;;5048834;28;20246;-67
2023/12/09 02:46:22;;;;;;;29.07;18.30;;;2.50;99.90;;;;;;5048879;28;20215;-67
2023/12/09 02:48:49;;;;;;;28.03;17.77;;;2.50;99.90;;;;;;5047568;28;20846;-67
2023/12/09 02:51:16;;;;;;;27.07;18.07;;;2.50;99.90;;;;;;5048785;28;20278;-67
2023/12/09 02:53:44;;;;;;;29.13;17.30;;;2.50;99.90;;;;;;5048808;28;21166;-66
2023/12/09 02:56:12;;;;;;;26.87;17.47;;;2.50;99.90;;;;;;5048863;28;20231;-67
2023/12/09 02:58:39;;;;;;;26.57;17.90;;;2.50;99.90;;;;;;5048355;28;20216;-67
2023/12/09 03:01:06;;;;;;;26.87;18.10;;;2.50;99.90;;;;;;5048874;28;20749;-67
2023/12/09 03:03:33;;;;;;;27.33;17.73;;;2.50;99.90;;;;;;5048681;28;20215;-67
2023/12/09 03:05:59;;;;;;;26.30;17.57;;;2.50;99.90;;;;;;5039786;28;20336;-66
2023/12/09 03:08:26;;;;;;;31.90;17.47;;;2.50;99.90;;;;;;5028617;28;20552;-67
2023/12/09 03:10:53;;;;;;;29.87;18.70;;;2.50;99.90;;;;;;5038456;28;20307;-67
2023/12/09 03:13:21;;;;;;;32.53;19.03;;;2.50;99.90;;;;;;5048244;28;20234;-67
2023/12/09 03:15:48;;;;;;;28.60;18.73;;;2.50;99.90;;;;;;5048627;28;20734;-67
2023/12/09 03:18:15;;;;;;;31.77;19.03;;;2.50;99.90;;;;;;5048549;28;20293;-67
2023/12/09 03:20:42;;;;;;;30.60;19.37;;;2.50;99.90;;;;;;5048298;28;20216;-67
2023/12/09 03:23:09;;;;;;;31.27;19.60;;;2.60;99.90;;;;;;5048641;28;20289;-67
2023/12/09 03:25:36;;;;;;;34.43;20.33;;;2.60;99.90;;;;;;5048413;28;20262;-67
2023/12/09 03:28:03;;;;;;;30.60;18.90;;;2.60;99.90;;;;;;5047807;28;20888;-67
2023/12/09 03:30:31;;;;;;;33.83;19.07;;;2.60;99.90;;;;;;5048347;28;20357;-67
2023/12/09 03:32:58;;;;;;;32.97;19.67;;;2.60;99.90;;;;;;5048123;28;20295;-67
2023/12/09 03:35:25;;;;;;;31.00;18.77;;;2.50;99.90;;;;;;5048132;28;20231;-67
2023/12/09 03:37:52;;;;;;;34.83;19.57;;;2.60;99.90;;;;;;5047580;28;20324;-67
2023/12/09 03:40:19;;;;;;;34.77;20.07;;;2.60;99.90;;;;;;5047680;28;20307;-67
2023/12/09 03:42:46;;;;;;;33.50;19.70;;;2.60;99.90;;;;;;5047850;28;20287;-67
2023/12/09 03:45:12;;;;;;;29.43;18.33;;;2.60;99.90;;;;;;5047818;28;20258;-67
2023/12/09 03:47:41;;;;;;;31.47;19.93;;;2.50;99.90;;;;;;5047881;28;20723;-67
2023/12/09 03:50:08;;;;;;;39.33;21.23;;;2.50;99.90;;;;;;5047689;28;20308;-67
2023/12/09 03:52:35;;;;;;;33.60;19.10;;;2.50;99.90;;;;;;5048007;28;20286;-67
2023/12/09 03:55:03;;;;;;;39.60;20.43;;;2.60;99.90;;;;;;5047071;28;20222;-67
2023/12/09 03:57:30;;;;;;;36.17;19.70;;;2.60;99.90;;;;;;5047682;28;20200;-67
2023/12/09 03:59:57;;;;;;;34.67;20.10;;;2.60;99.90;;;;;;5047439;28;20295;-67
2023/12/09 04:02:25;;;;;;;35.80;19.77;;;2.60;99.90;;;;;;5037726;28;20237;-67
2023/12/09 04:04:53;;;;;;;34.87;19.27;;;2.60;99.90;;;;;;5027211;28;20264;-67
2023/12/09 04:07:20;;;;;;;31.07;18.77;;;2.60;99.90;;;;;;5027027;28;20320;-67
2023/12/09 04:09:47;;;;;;;35.07;19.80;;;2.60;99.90;;;;;;5036100;28;20208;-67
2023/12/09 04:12:13;;;;;;;37.77;20.17;;;2.60;99.90;;;;;;5047428;28;20299;-67
2023/12/09 04:14:40;;;;;;;34.27;19.53;;;2.60;99.90;;;;;;5047334;28;20287;-67
2023/12/09 04:17:07;;;;;;;39.03;20.87;;;2.60;99.90;;;;;;5046434;28;20212;-66
2023/12/09 04:19:34;;;;;;;38.00;20.47;;;2.60;99.90;;;;;;5047292;28;20231;-67
2023/12/09 04:22:02;;;;;;;35.87;20.83;;;2.50;99.90;;;;;;5046872;28;20212;-67
2023/12/09 04:24:29;;;;;;;38.87;20.77;;;2.60;99.90;;;;;;5047068;28;20242;-67
2023/12/09 04:26:56;;;;;;;37.00;20.37;;;2.60;99.90;;;;;;5046826;28;20291;-67
2023/12/09 04:29:23;;;;;;;40.13;20.93;;;2.60;99.90;;;;;;5047031;28;20292;-66
2023/12/09 04:31:50;;;;;;;35.53;20.07;;;2.60;99.90;;;;;;5046624;28;20204;-67
2023/12/09 04:34:17;;;;;;;38.20;19.67;;;2.60;99.90;;;;;;5046717;28;20248;-67
2023/12/09 04:36:44;;;;;;;36.23;19.77;;;2.60;99.90;;;;;;5046845;28;20257;-67
2023/12/09 04:39:12;;;;;;;47.40;20.10;;;2.60;99.90;;;;;;5046320;28;20746;-67
2023/12/09 04:41:39;;;;;;;43.40;20.00;;;2.70;99.90;;;;;;5046793;28;20270;-67
2023/12/09 04:44:06;;;;;;;37.33;18.80;;;2.70;99.90;;;;;;5046287;28;20287;-67
2023/12/09 04:46:33;;;;;;;41.70;20.20;;;2.70;99.90;;;;;;5046564;28;20242;-67
2023/12/09 04:48:59;;;;;;;39.90;20.60;;;2.70;99.90;;;;;;5046450;28;20299;-67
2023/12/09 04:51:27;;;;;;;38.00;20.37;;;2.70;99.90;;;;;;5046053;28;20303;-67
2023/12/09 04:53:54;;;;;;;45.87;20.97;;;2.70;99.90;;;;;;5046066;28;20302;-67
2023/12/09 04:56:22;;;;;;;43.03;20.57;;;2.70;99.90;;;;;;5046236;28;20796;-67
2023/12/09 04:58:49;;;;;;;41.40;20.87;;;2.70;99.90;;;;;;5035275;28;20308;-67
2023/12/09 05:01:16;;;;;;;46.67;22.00;;;2.70;99.90;;;;;;5026540;28;20209;-67
2023/12/09 05:03:43;;;;;;;41.97;21.10;;;2.70;99.90;;;;;;5026318;28;20262;-67
2023/12/09 05:06:10;;;;;;;39.97;19.63;;;2.70;99.90;;;;;;5035790;28;20255;-67
2023/12/09 05:08:39;;;;;;;43.77;20.70;;;2.70;99.90;;;;;;5046270;28;20292;-67
2023/12/09 05:11:06;;;;;;;40.00;20.80;;;2.70;99.90;;;;;;5046013;28;20226;-67
2023/12/09 05:13:34;;;;;;;43.50;21.00;;;2.70;99.90;;;;;;5045135;28;20204;-66
2023/12/09 05:16:01;;;;;;;40.27;20.57;;;2.70;99.90;;;;;;5045898;28;20250;-67
2023/12/09 05:18:27;;;;;;;36.87;20.37;;;2.70;99.90;;;;;;5045843;28;20666;-67
2023/12/09 05:20:54;;;;;;;37.47;19.97;;;2.70;99.90;;;;;;5045599;28;20303;-67
2023/12/09 05:23:21;;;;;;;37.63;19.77;;;2.80;99.90;;;;;;5045955;28;20649;-67
2023/12/09 05:25:49;;;;;;;40.80;20.23;;;2.80;99.90;;;;;;5046137;28;20318;-67
2023/12/09 05:28:16;;;;;;;37.03;19.87;;;2.80;99.90;;;;;;5045923;28;20200;-67
2023/12/09 05:30:44;;;;;;;35.43;19.80;;;2.80;99.90;;;;;;5045893;28;20298;-66
2023/12/09 05:33:11;;;;;;;35.03;19.43;;;2.80;99.90;;;;;;5045721;28;20304;-67
2023/12/09 05:35:38;;;;;;;38.63;19.33;;;2.80;99.90;;;;;;5045594;28;20216;-67
2023/12/09 05:38:05;;;;;;;34.63;18.67;;;2.80;99.90;;;;;;5045862;28;20298;-67
2023/12/09 05:40:31;;;;;;;34.67;19.63;;;2.80;99.90;;;;;;5045877;28;20294;-67
2023/12/09 05:42:58;;;;;;;33.13;19.83;;;2.80;99.90;;;;;;5045790;28;20294;-66
2023/12/09 05:45:26;;;;;;;38.47;20.53;;;2.80;99.90;;;;;;5045968;28;20327;-67
2023/12/09 05:47:54;;;;;;;37.20;20.23;;;2.80;99.90;;;;;;5045431;28;20303;-67
2023/12/09 05:50:21;;;;;;;40.60;21.03;;;2.80;99.90;;;;;;5046050;28;20303;-67
2023/12/09 05:52:48;;;;;;;37.03;20.40;;;2.90;99.90;;;;;;5045999;28;20303;-67
2023/12/09 05:55:18;;;;;;;36.33;20.80;;;2.80;99.90;;;;;;5045798;28;20291;-67
2023/12/09 05:57:45;;;;;;;37.27;20.50;;;2.80;99.90;;;;;;5045447;28;20301;-67
2023/12/09 06:00:13;;;;;;;35.63;20.87;;;2.90;99.90;;;;;;5045511;28;20730;-67
2023/12/09 06:02:41;;;;;;;33.60;19.47;;;2.90;99.90;;;;;;5045336;28;20295;-67
2023/12/09 06:05:10;;;;;;;35.83;20.63;;;2.90;99.90;;;;;;5045222;28;20598;-67
2023/12/09 06:07:37;;;;;;;36.60;21.33;;;2.90;99.90;;;;;;5045419;28;20263;-67
2023/12/09 06:10:05;;;;;;;37.10;21.10;;;2.90;99.90;;;;;;5045508;28;20303;-67
2023/12/09 06:12:33;;;;;;;35.63;21.57;;;2.90;99.90;;;;;;5045261;28;20699;-67
2023/12/09 06:14:59;;;;;;;39.30;22.27;;;2.90;99.90;;;;;;5045502;28;20203;-67
2023/12/09 06:17:26;;;;;;;34.50;20.70;;;2.90;99.90;;;;;;5045575;28;20232;-67
2023/12/09 06:19:54;;;;;;;38.57;21.80;;;2.90;99.90;;;;;;5044893;28;20216;-67
2023/12/09 06:22:22;;;;;;;40.57;21.77;;;2.90;99.90;;;;;;5045810;28;20204;-67
2023/12/09 06:24:49;;;;;;;37.33;21.07;;;2.90;99.90;;;;;;5048398;28;20212;-67
2023/12/09 06:27:16;;;;;;;37.10;21.33;;;2.90;99.90;;;;;;5049191;28;20236;-67
2023/12/09 06:29:45;;;;;;;38.07;21.07;;;2.90;99.90;;;;;;5049064;28;20206;-67
2023/12/09 06:32:12;;;;;;;39.70;21.30;;;2.90;99.90;;;;;;5048987;28;20231;-67
2023/12/09 06:34:39;;;;;;;32.77;19.93;;;2.90;99.90;;;;;;5048799;28;20309;-67
2023/12/09 06:37:06;;;;;;;32.83;20.50;;;2.90;99.90;;;;;;5048784;28;20291;-67
2023/12/09 06:39:34;;;;;;;32.87;20.00;;;3.00;99.90;;;;;;5049046;28;20206;-67
2023/12/09 06:42:01;;;;;;;32.17;20.00;;;2.90;99.90;;;;;;5048373;28;20200;-67
2023/12/09 06:44:28;;;;;;;34.20;20.30;;;3.00;99.90;;;;;;5048439;28;20208;-67
2023/12/09 06:46:55;;;;;;;34.43;20.10;;;3.00;99.90;;;;;;5048571;28;20227;-67
2023/12/09 06:49:22;;;;;;;31.50;19.07;;;3.00;99.90;;;;;;5048414;28;20318;-67
2023/12/09 06:51:49;;;;;;;33.50;20.10;;;3.00;99.90;;;;;;5048567;28;20315;-67
2023/12/09 06:54:16;;;;;;;35.10;22.00;;;3.00;99.90;;;;;;5048478;28;20216;-67
2023/12/09 06:56:45;;;;;;;36.07;20.10;;;3.00;99.90;;;;;;5048673;28;20303;-67
2023/12/09 06:59:11;;;;;;;35.77;20.50;;;3.00;99.90;;;;;;5048159;28;21066;-67
2023/12/09 07:01:38;;;;;;;31.83;19.27;;;3.00;99.90;;;;;;5048240;28;20219;-67
2023/12/09 07:04:05;;;;;;;33.37;19.73;;;3.00;99.90;;;;;;5047769;28;20715;-67
2023/12/09 07:06:32;;;;;;;29.53;19.47;;;3.00;99.90;;;;;;5048011;28;20323;-67
2023/12/09 07:08:59;;;;;;;33.17;19.93;;;3.00;99.90;;;;;;5048329;28;20303;-67
2023/12/09 07:11:26;;;;;;;40.53;26.10;;;3.00;99.90;;;;;;5048408;28;20216;-67
2023/12/09 07:13:55;;;;;;;36.87;23.17;;;3.00;99.90;;;;;;5048126;28;20204;-67
2023/12/09 07:16:21;;;;;;;38.03;25.30;;;3.00;99.90;;;;;;5048244;28;20243;-67
2023/12/09 07:18:50;;;;;;;42.23;30.60;;;3.00;99.90;;;;;;5047798;28;20648;-67
2023/12/09 07:21:18;;;;;;;36.47;25.50;;;3.00;99.90;;;;;;5048113;28;20249;-67
2023/12/09 07:23:45;;;;;;;30.10;19.73;;;3.00;99.90;;;;;;5047676;28;20240;-67
2023/12/09 07:26:13;;;;;;;35.57;21.73;;;3.10;99.90;;;;;;5047796;28;20314;-67
2023/12/09 07:28:39;;;;;;;34.00;22.50;;;3.10;99.90;;;;;;5047772;28;20619;-67
2023/12/09 07:31:09;;;;;;;28.83;19.83;;;3.00;99.90;;;;;;5047790;28;20584;-67
2023/12/09 07:33:36;;;;;;;30.00;19.90;;;3.10;99.90;;;;;;5047942;28;20298;-67
2023/12/09 07:36:04;;;;;;;32.13;19.63;;;3.10;99.90;;;;;;5047002;28;20208;-67
2023/12/09 07:38:31;;;;;;;31.17;19.80;;;3.10;99.90;;;;;;5047693;28;20231;-67
2023/12/09 07:40:58;;;;;;;26.93;17.93;;;3.10;99.90;;;;;;5047482;28;20323;-67
2023/12/09 07:43:25;;;;;;;27.47;18.77;;;3.10;99.90;;;;;;5047058;28;20680;-67
2023/12/09 07:45:52;;;;;;;28.20;18.23;;;3.10;99.90;;;;;;5047260;28;20235;-67
2023/12/09 07:48:21;;;;;;;27.07;17.87;;;3.10;99.90;;;;;;5047361;28;20211;-67
2023/12/09 07:50:48;;;;;;;29.67;19.53;;;3.20;99.90;;;;;;5047137;28;20624;-67
2023/12/09 07:53:15;;;;;;;29.50;18.37;;;3.10;99.90;;;;;;5047698;28;20287;-67
2023/12/09 07:55:41;;;;;;;26.73;17.70;;;3.10;99.90;;;;;;5047427;28;20299;-67
2023/12/09 07:58:08;;;;;;;25.83;16.97;;;3.10;99.90;;;;;;5047348;28;20291;-67
2023/12/09 08:00:35;;;;;;;29.93;18.63;;;3.20;99.90;;;;;;5047337;28;20577;-67
2023/12/09 08:03:06;;;;;;;37.67;26.17;;;3.20;99.90;;;;;;5047015;28;20291;-67
2023/12/09 08:05:34;;;;;;;26.87;17.13;;;3.20;99.90;;;;;;5047503;28;20255;-67
2023/12/09 08:08:01;;;;;;;28.27;18.03;;;3.20;99.90;;;;;;5046570;28;20247;-67
2023/12/09 08:10:28;;;;;;;23.93;16.03;;;3.20;99.90;;;;;;5047642;28;20242;-67
2023/12/09 08:12:55;;;;;;;27.00;17.23;;;3.20;99.90;;;;;;5046988;28;20208;-68
2023/12/09 08:15:22;;;;;;;25.50;17.53;;;3.20;99.90;;;;;;5047273;28;20208;-67
2023/12/09 08:17:49;;;;;;;29.93;17.80;;;3.30;99.90;;;;;;5047153;28;20243;-67
2023/12/09 08:20:16;;;;;;;25.70;16.80;;;3.30;99.90;;;;;;5046809;28;20781;-67
2023/12/09 08:22:44;;;;;;;23.93;16.50;;;3.30;99.90;;;;;;5047080;28;20286;-67
2023/12/09 08:25:11;;;;;;;23.97;15.97;;;3.30;99.90;;;;;;5046832;28;20235;-67
2023/12/09 08:27:38;;;;;;;25.30;16.60;;;3.30;99.90;;;;;;5046999;28;20528;-67
2023/12/09 08:30:10;;;;;;;25.97;16.60;;;3.30;99.90;;;;;;5046904;28;20203;-67
2023/12/09 08:32:38;;;;;;;25.83;16.37;;;3.30;99.90;;;;;;5046824;28;20204;-67
2023/12/09 08:35:05;;;;;;;22.03;15.23;;;3.30;99.90;;;;;;5046415;28;20750;-67
2023/12/09 08:37:32;;;;;;;26.73;16.10;;;3.30;99.90;;;;;;5046468;28;20295;-67
2023/12/09 08:40:05;;;;;;;28.17;16.70;;;3.40;99.90;;;;;;5046608;28;20291;-67
2023/12/09 08:42:32;;;;;;;22.90;15.30;;;3.40;99.90;;;;;;5046299;28;20254;-67
2023/12/09 08:44:59;;;;;;;22.37;14.67;;;3.40;99.90;;;;;;5045916;28;20323;-67
2023/12/09 08:47:26;;;;;;;23.30;16.00;;;3.40;99.90;;;;;;5045903;28;20354;-67
2023/12/09 08:49:53;;;;;;;23.47;15.40;;;3.40;99.90;;;;;;5046417;28;20307;-67
2023/12/09 08:52:21;;;;;;;27.13;15.27;;;3.40;99.90;;;;;;5046511;28;20211;-67
2023/12/09 08:54:48;;;;;;;24.97;15.53;;;3.40;99.90;;;;;;5046444;28;20787;-68
2023/12/09 08:57:16;;;;;;;22.70;15.97;;;3.50;99.90;;;;;;5046217;28;20307;-67
2023/12/09 08:59:43;;;;;;;23.23;15.13;;;3.50;99.90;;;;;;5046114;28;20303;-67
2023/12/09 09:02:10;;;;;;;26.40;17.70;;;3.50;99.90;;;;;;5045952;28;20207;-67
2023/12/09 09:04:36;;;;;;;34.50;21.17;;;3.50;99.90;;;;;;5046021;28;20318;-67
2023/12/09 09:07:04;;;;;;;29.03;19.77;;;3.50;99.90;;;;;;5045707;28;20326;-67
2023/12/09 09:09:30;;;;;;;27.10;18.87;;;3.50;99.90;;;;;;5046027;28;20298;-68
2023/12/09 09:11:57;;;;;;;28.30;17.80;;;3.50;99.90;;;;;;5045756;28;20211;-67
2023/12/09 09:14:25;;;;;;;23.27;16.60;;;3.50;99.90;;;;;;5045688;28;20308;-67
2023/12/09 09:16:52;;;;;;;22.60;17.07;;;3.50;99.90;;;;;;5046049;28;20285;-67
2023/12/09 09:19:19;;;;;;;23.33;16.17;;;3.50;99.90;;;;;;5046065;28;20287;-67
2023/12/09 09:21:46;;;;;;;24.53;16.60;;;3.60;99.90;;;;;;5045953;28;20295;-67
2023/12/09 09:24:13;;;;;;;23.00;15.70;;;3.60;99.90;;;;;;5045912;28;20382;-67
2023/12/09 09:26:40;;;;;;;25.30;16.97;;;3.60;99.90;;;;;;5045924;28;20231;-67
2023/12/09 09:29:07;;;;;;;22.53;14.87;;;3.60;99.90;;;;;;5045359;28;20761;-67
2023/12/09 09:31:35;;;;;;;24.63;15.77;;;3.70;99.90;;;;;;5045608;28;20295;-67
2023/12/09 09:34:02;;;;;;;27.10;15.60;;;3.60;99.90;;;;;;5045828;28;20314;-67
2023/12/09 09:36:30;;;;;;;23.03;15.67;;;3.60;99.90;;;;;;5045518;28;20223;-67
2023/12/09 09:38:57;;;;;;;22.03;15.40;;;3.70;99.90;;;;;;5045389;28;20223;-67
2023/12/09 09:41:29;;;;;;;19.20;14.30;;;3.70;99.90;;;;;;5046186;28;20235;-67
2023/12/09 09:44:03;;;;;;;23.87;15.17;;;3.70;99.90;;;;;;5045197;28;20435;-67
2023/12/09 09:46:32;;;;;;;20.50;14.87;;;3.70;99.90;;;;;;5045860;28;20247;-67
2023/12/09 09:49:03;;;;;;;23.07;15.30;;;3.70;99.90;;;;;;5045483;28;20291;-67
2023/12/09 09:51:31;;;;;;;25.73;16.33;;;3.70;99.90;;;;;;5045227;28;20319;-67
2023/12/09 09:54:09;;;;;;;22.93;15.40;;;3.80;99.90;;;;;;5045664;28;20343;-67
2023/12/09 09:56:37;;;;;;;22.40;15.13;;;3.70;99.90;;;;;;5045696;28;20199;-67
2023/12/09 09:59:06;;;;;;;20.70;15.00;;;3.80;99.90;;;;;;5047453;28;20630;-67
2023/12/09 10:01:34;;;;;;;21.00;15.00;;;3.70;99.90;;;;;;5049718;28;20317;-67
2023/12/09 10:04:03;;;;;;;23.47;15.27;;;3.70;99.90;;;;;;5049722;28;20220;-67
2023/12/09 10:06:31;;;;;;;24.63;15.57;;;3.80;99.90;;;;;;5049067;28;20247;-67
2023/12/09 10:08:58;;;;;;;22.00;15.37;;;3.70;99.90;;;;;;5049585;28;20240;-67
2023/12/09 10:11:25;;;;;;;22.83;14.83;;;3.80;99.90;;;;;;5049606;28;20639;-67
2023/12/09 10:13:52;;;;;;;23.40;15.60;;;3.70;99.90;;;;;;5049370;28;20291;-67
2023/12/09 10:16:19;;;;;;;23.47;15.03;;;3.80;99.90;;;;;;5049418;28;20311;-67
2023/12/09 10:18:47;;;;;;;20.10;14.50;;;3.80;99.90;;;;;;5049239;28;20291;-67
2023/12/09 10:21:15;;;;;;;24.70;16.30;;;3.80;99.90;;;;;;5048953;28;20376;-67
2023/12/09 10:23:45;;;;;;;24.40;15.03;;;3.80;99.90;;;;;;5049060;28;20737;-67
2023/12/09 10:26:12;;;;;;;22.00;14.57;;;3.90;99.90;;;;;;5049241;28;20232;-67
2023/12/09 10:28:39;;;;;;;22.10;14.20;;;3.80;99.90;;;;;;5047870;28;20332;-67
2023/12/09 10:31:09;;;;;;;25.80;15.30;;;3.90;99.90;;;;;;5049097;28;20228;-67
2023/12/09 10:33:36;;;;;;;21.97;14.87;;;3.90;99.90;;;;;;5048991;28;20204;-67
2023/12/09 10:36:03;;;;;;;25.40;14.67;;;3.90;99.90;;;;;;5048059;28;20196;-67
2023/12/09 10:38:32;;;;;;;20.53;14.03;;;4.00;99.90;;;;;;5048551;28;20295;-67
2023/12/09 10:40:58;;;;;;;21.87;14.17;;;4.00;99.90;;;;;;5048889;28;20315;-67
2023/12/09 10:43:25;;;;;;;25.60;14.97;;;4.00;99.90;;;;;;5048655;28;20236;-67
2023/12/09 10:45:52;;;;;;;17.93;13.17;;;3.90;99.90;;;;;;5048665;28;20577;-67
2023/12/09 10:48:19;;;;;;;18.33;13.83;;;3.90;99.90;;;;;;5047965;28;20263;-67
2023/12/09 10:50:48;;;;;;;20.30;13.50;;;4.00;99.90;;;;;;5048527;28;20200;-67
2023/12/09 10:53:14;;;;;;;19.63;13.60;;;4.00;99.90;;;;;;5048631;28;20216;-67
2023/12/09 10:55:43;;;;;;;21.43;13.97;;;4.00;99.90;;;;;;5048911;28;20282;-67
2023/12/09 10:58:11;;;;;;;22.73;14.30;;;4.10;99.90;;;;;;5048171;28;20208;-67
2023/12/09 11:00:38;;;;;;;19.17;13.13;;;4.00;99.90;;;;;;5048261;28;20204;-67
2023/12/09 11:03:07;;;;;;;20.03;13.37;;;4.10;99.90;;;;;;5048360;28;20681;-67
2023/12/09 11:05:40;;;;;;;19.80;13.10;;;4.10;99.90;;;;;;5048002;28;20216;-67
2023/12/09 11:08:11;;;;;;;20.27;12.77;;;4.10;99.90;;;;;;5047863;28;20301;-67
2023/12/09 11:10:38;;;;;;;19.23;12.80;;;4.10;99.90;;;;;;5047451;28;20223;-67
2023/12/09 11:13:07;;;;;;;18.90;12.90;;;4.20;99.90;;;;;;5047951;28;20570;-67
2023/12/09 11:15:33;;;;;;;19.43;13.57;;;4.20;99.90;;;;;;5047902;28;20239;-67
2023/12/09 11:18:10;;;;;;;19.90;13.47;;;4.30;99.90;;;;;;5032735;28;20296;-67
2023/12/09 11:20:39;;;;;;;20.20;12.87;;;4.40;99.90;;;;;;5027916;28;20192;-67
2023/12/09 11:23:10;;;;;;;18.30;12.70;;;4.40;99.90;;;;;;5027930;28;20209;-67
2023/12/09 11:25:40;;;;;;;17.30;12.33;;;4.50;99.90;;;;;;5043241;28;20230;-67
2023/12/09 11:28:10;;;;;;;18.37;12.70;;;4.50;99.90;;;;;;5047565;28;20720;-67
2023/12/09 11:30:40;;;;;;;18.30;11.90;;;4.60;99.90;;;;;;5047938;28;20189;-67
2023/12/09 11:33:07;;;;;;;16.83;11.93;;;4.60;99.90;;;;;;5032686;28;20203;-67
2023/12/09 11:35:36;;;;;;;15.47;11.43;;;4.60;99.90;;;;;;5027642;28;20659;-67
2023/12/09 11:38:04;;;;;;;17.00;12.20;;;4.60;99.90;;;;;;5028239;28;20375;-67
2023/12/09 11:40:33;;;;;;;18.40;12.17;;;4.60;99.90;;;;;;5042560;28;20207;-67
2023/12/09 11:43:02;;;;;;;13.70;11.13;;;4.70;99.90;;;;;;5047224;28;20291;-67
2023/12/09 11:45:30;;;;;;;14.73;10.67;;;4.60;99.90;;;;;;5047978;28;20211;-67
2023/12/09 11:47:58;;;;;;;17.30;11.57;;;4.60;99.90;;;;;;5047502;28;20228;-67
2023/12/09 11:50:28;;;;;;;13.27;10.43;;;4.60;99.90;;;;;;5047569;28;20290;-67
2023/12/09 11:52:55;;;;;;;14.27;9.73;;;4.60;99.90;;;;;;5047287;28;20204;-67
2023/12/09 11:55:22;;;;;;;14.97;10.10;;;4.60;99.90;;;;;;5047630;28;20238;-67
2023/12/09 11:57:49;;;;;;;14.60;10.47;;;4.50;99.90;;;;;;5047752;28;20307;-67
2023/12/09 12:00:16;;;;;;;15.43;9.97;;;4.60;99.90;;;;;;5047218;28;20757;-67
2023/12/09 12:02:45;;;;;;;12.20;9.03;;;4.60;99.90;;;;;;5047437;28;20291;-68
2023/12/09 12:05:13;;;;;;;12.17;9.03;;;4.50;99.90;;;;;;5046982;28;20506;-67
2023/12/09 12:07:40;;;;;;;10.03;8.63;;;4.50;99.90;;;;;;5047092;28;20238;-67
2023/12/09 12:10:09;;;;;;;12.97;8.97;;;4.60;99.90;;;;;;5046755;28;20302;-68
2023/12/09 12:12:36;;;;;;;11.50;8.97;;;4.50;99.90;;;;;;5047387;28;20200;-67
2023/12/09 12:15:03;;;;;;;16.13;9.20;;;4.60;99.90;;;;;;5046820;28;20261;-67
2023/12/09 12:17:38;;;;;;;11.13;8.90;;;4.60;99.90;;;;;;5046924;28;20670;-67
2023/12/09 12:20:08;;;;;;;13.73;9.23;;;4.60;99.90;;;;;;5046413;28;20564;-67
2023/12/09 12:22:35;;;;;;;12.27;8.90;;;4.60;99.90;;;;;;5046604;28;20597;-67
2023/12/09 12:25:03;;;;;;;11.50;8.77;;;4.60;99.90;;;;;;5046950;28;20204;-67
2023/12/09 12:27:34;;;;;;;10.93;8.57;;;4.60;99.90;;;;;;5046760;28;20255;-67
2023/12/09 12:30:02;;;;;;;14.10;8.70;;;4.60;99.90;;;;;;5026686;28;20659;-67
2023/12/09 12:32:28;;;;;;;13.50;8.67;;;4.60;99.90;;;;;;5026608;28;20800;-68
2023/12/09 12:34:56;;;;;;;11.30;8.43;;;4.60;99.90;;;;;;5026257;28;20204;-67
2023/12/09 12:37:24;;;;;;;11.17;8.37;;;4.60;99.90;;;;;;5046203;28;20204;-67
2023/12/09 12:39:51;;;;;;;9.80;7.50;;;4.70;99.90;;;;;;5046562;28;20542;-67